createdAt,value
2019-03-17T00:00:36.223Z,0.00
2019-03-17T00:01:36.150Z,0.00
2019-03-17T00:02:36.232Z,0.00
2019-03-17T00:03:36.228Z,0.00
2019-03-17T00:04:36.120Z,0.00
2019-03-17T00:05:36.237Z,0.00
2019-03-17T00:06:36.181Z,0.00
2019-03-17T00:07:36.249Z,0.00
2019-03-17T00:08:36.241Z,0.00
2019-03-17T00:09:36.168Z,0.00
2019-03-17T00:10:36.246Z,0.00
2019-03-17T00:11:36.169Z,0.00
2019-03-17T00:12:36.243Z,0.00
2019-03-17T00:13:36.251Z,0.00
2019-03-17T00:14:36.239Z,0.00
2019-03-17T00:15:36.174Z,0.00
2019-03-17T00:16:36.245Z,0.00
2019-03-17T00:17:36.251Z,0.00
2019-03-17T00:18:36.254Z,0.00
2019-03-17T00:19:36.185Z,0.00
2019-03-17T00:20:36.174Z,0.00
2019-03-17T00:21:36.262Z,0.00
2019-03-17T00:22:36.174Z,0.00
2019-03-17T00:23:36.195Z,0.00
2019-03-17T00:24:36.168Z,0.00
2019-03-17T00:25:36.239Z,0.00
2019-03-17T00:26:36.197Z,0.00
2019-03-17T00:27:36.239Z,0.00
2019-03-17T00:28:36.177Z,0.00
2019-03-17T00:29:36.180Z,0.00
2019-03-17T00:30:36.175Z,0.00
2019-03-17T00:31:36.245Z,0.00
2019-03-17T00:32:36.179Z,0.00
2019-03-17T00:33:36.590Z,0.00
2019-03-17T00:34:44.045Z,0.00
2019-03-17T00:35:36.197Z,0.00
2019-03-17T00:36:36.170Z,0.00
2019-03-17T00:37:36.224Z,0.00
2019-03-17T00:38:36.113Z,0.00
2019-03-17T00:39:36.146Z,0.00
2019-03-17T00:40:36.122Z,0.00
2019-03-17T00:41:36.108Z,0.00
2019-03-17T00:42:36.125Z,0.00
2019-03-17T00:43:36.185Z,0.00
2019-03-17T00:44:36.213Z,0.00
2019-03-17T00:45:36.206Z,0.00
2019-03-17T00:46:36.165Z,0.00
2019-03-17T00:47:36.244Z,0.00
2019-03-17T00:48:36.247Z,0.00
2019-03-17T00:49:36.155Z,0.00
2019-03-17T00:50:36.168Z,0.00
2019-03-17T00:51:36.249Z,0.00
2019-03-17T00:52:36.211Z,0.00
2019-03-17T00:53:36.244Z,0.00
2019-03-17T00:54:36.191Z,0.00
2019-03-17T00:55:36.264Z,0.00
2019-03-17T00:56:36.198Z,0.00
2019-03-17T00:57:36.185Z,0.00
2019-03-17T00:58:36.265Z,0.00
2019-03-17T00:59:36.199Z,0.00
2019-03-17T01:00:36.264Z,0.00
2019-03-17T01:01:36.208Z,0.00
2019-03-17T01:02:36.277Z,0.00
2019-03-17T01:03:36.197Z,0.00
2019-03-17T01:04:36.203Z,0.00
2019-03-17T01:05:36.197Z,0.00
2019-03-17T01:06:36.268Z,0.00
2019-03-17T01:07:36.215Z,0.00
2019-03-17T01:08:36.204Z,0.00
2019-03-17T01:09:36.211Z,0.00
2019-03-17T01:10:36.271Z,0.00
2019-03-17T01:11:36.204Z,0.00
2019-03-17T01:12:36.277Z,0.00
2019-03-17T01:13:36.208Z,0.00
2019-03-17T01:14:36.260Z,0.00
2019-03-17T01:15:36.263Z,0.00
2019-03-17T01:16:36.181Z,0.00
2019-03-17T01:17:36.143Z,0.00
2019-03-17T01:18:36.224Z,0.00
2019-03-17T01:19:36.219Z,0.00
2019-03-17T01:20:36.181Z,0.00
2019-03-17T01:21:36.277Z,0.00
2019-03-17T01:22:36.244Z,0.00
2019-03-17T01:23:36.272Z,0.00
2019-03-17T01:24:36.222Z,0.00
2019-03-17T01:25:36.292Z,0.00
2019-03-17T01:26:36.241Z,0.00
2019-03-17T01:27:36.222Z,0.00
2019-03-17T01:28:36.240Z,0.00
2019-03-17T01:29:36.227Z,0.00
2019-03-17T01:30:36.295Z,0.00
2019-03-17T01:31:36.294Z,0.00
2019-03-17T01:32:36.237Z,0.00
2019-03-17T01:33:36.307Z,0.00
2019-03-17T01:34:36.317Z,0.00
2019-03-17T01:35:36.311Z,0.00
2019-03-17T01:36:36.300Z,0.00
2019-03-17T01:37:36.228Z,0.00
2019-03-17T01:38:36.233Z,0.00
2019-03-17T01:39:36.309Z,0.00
2019-03-17T01:40:36.303Z,0.00
2019-03-17T01:41:36.304Z,0.00
2019-03-17T01:42:36.310Z,0.00
2019-03-17T01:43:36.243Z,0.00
2019-03-17T01:44:36.255Z,0.00
2019-03-17T01:45:36.300Z,0.00
2019-03-17T01:46:36.235Z,0.00
2019-03-17T01:47:36.311Z,0.00
2019-03-17T01:48:36.301Z,0.00
2019-03-17T01:49:36.312Z,0.00
2019-03-17T01:50:36.323Z,0.00
2019-03-17T01:51:36.306Z,0.00
2019-03-17T01:52:36.239Z,0.00
2019-03-17T01:53:36.239Z,0.00
2019-03-17T01:54:36.308Z,0.00
2019-03-17T01:55:36.316Z,0.00
2019-03-17T01:56:36.320Z,0.00
2019-03-17T01:57:36.241Z,0.00
2019-03-17T01:58:36.243Z,0.00
2019-03-17T01:59:36.319Z,0.00
2019-03-17T02:00:36.327Z,0.00
2019-03-17T02:01:36.326Z,0.00
2019-03-17T02:02:36.250Z,0.00
2019-03-17T02:03:36.250Z,0.00
2019-03-17T02:04:36.318Z,0.00
2019-03-17T02:05:36.325Z,0.00
2019-03-17T02:06:36.265Z,0.00
2019-03-17T02:07:36.251Z,0.00
2019-03-17T02:08:36.324Z,0.00
2019-03-17T02:09:36.317Z,0.00
2019-03-17T02:10:36.278Z,0.00
2019-03-17T02:11:36.268Z,0.00
2019-03-17T02:12:36.334Z,0.00
2019-03-17T02:13:36.425Z,0.00
2019-03-17T02:14:36.266Z,0.00
2019-03-17T02:15:36.266Z,0.00
2019-03-17T02:16:36.268Z,0.00
2019-03-17T02:17:36.336Z,0.00
2019-03-17T02:18:36.329Z,0.00
2019-03-17T02:19:36.261Z,0.00
2019-03-17T02:20:36.332Z,0.00
2019-03-17T02:21:36.343Z,0.00
2019-03-17T02:22:36.277Z,0.00
2019-03-17T02:23:36.340Z,0.00
2019-03-17T02:24:36.262Z,0.00
2019-03-17T02:25:36.264Z,0.00
2019-03-17T02:26:36.338Z,0.00
2019-03-17T02:27:36.339Z,0.00
2019-03-17T02:28:36.348Z,0.00
2019-03-17T02:29:36.264Z,0.00
2019-03-17T02:30:36.294Z,0.00
2019-03-17T02:31:36.276Z,0.00
2019-03-17T02:32:36.231Z,0.00
2019-03-17T02:33:36.345Z,0.00
2019-03-17T02:34:36.351Z,0.00
2019-03-17T02:35:39.461Z,0.00
2019-03-17T02:36:36.272Z,0.00
2019-03-17T02:37:36.275Z,0.00
2019-03-17T02:38:36.343Z,0.00
2019-03-17T02:39:36.358Z,0.00
2019-03-17T02:40:36.350Z,0.00
2019-03-17T02:41:36.292Z,0.00
2019-03-17T02:42:36.279Z,0.00
2019-03-17T02:43:36.351Z,0.00
2019-03-17T02:44:36.343Z,0.00
2019-03-17T02:45:36.352Z,0.00
2019-03-17T02:46:36.313Z,0.00
2019-03-17T02:47:36.299Z,0.00
2019-03-17T02:48:36.384Z,0.00
2019-03-17T02:49:36.430Z,0.00
2019-03-17T02:50:36.291Z,0.00
2019-03-17T02:51:36.356Z,0.00
2019-03-17T02:52:36.344Z,0.00
2019-03-17T02:53:36.483Z,0.00
2019-03-17T02:54:36.361Z,0.00
2019-03-17T02:55:36.269Z,0.00
2019-03-17T02:56:36.308Z,0.00
2019-03-17T02:57:36.338Z,0.00
2019-03-17T02:58:36.340Z,0.00
2019-03-17T02:59:36.246Z,0.00
2019-03-17T03:00:36.278Z,0.00
2019-03-17T03:01:36.273Z,0.00
2019-03-17T03:02:36.299Z,0.00
2019-03-17T03:03:36.342Z,0.00
2019-03-17T03:04:36.355Z,0.00
2019-03-17T03:05:36.311Z,0.00
2019-03-17T03:06:36.301Z,0.00
2019-03-17T03:07:36.297Z,0.00
2019-03-17T03:08:36.389Z,0.00
2019-03-17T03:09:36.391Z,0.00
2019-03-17T03:10:36.380Z,0.00
2019-03-17T03:11:36.386Z,0.00
2019-03-17T03:12:36.378Z,0.00
2019-03-17T03:13:36.373Z,0.00
2019-03-17T03:14:36.313Z,0.00
2019-03-17T03:15:36.361Z,0.00
2019-03-17T03:16:36.364Z,0.00
2019-03-17T03:17:36.296Z,0.00
2019-03-17T03:18:36.363Z,0.00
2019-03-17T03:19:36.366Z,0.00
2019-03-17T03:20:36.368Z,0.00
2019-03-17T03:21:36.299Z,0.00
2019-03-17T03:22:36.373Z,0.00
2019-03-17T03:23:36.294Z,0.00
2019-03-17T03:24:36.365Z,0.00
2019-03-17T03:25:36.306Z,0.00
2019-03-17T03:26:36.383Z,0.00
2019-03-17T03:27:36.382Z,0.00
2019-03-17T03:28:36.320Z,0.00
2019-03-17T03:29:36.379Z,0.00
2019-03-17T03:30:36.314Z,0.00
2019-03-17T03:31:36.387Z,0.00
2019-03-17T03:32:36.386Z,0.00
2019-03-17T03:33:36.398Z,0.00
2019-03-17T03:34:36.328Z,0.00
2019-03-17T03:35:36.378Z,0.00
2019-03-17T03:36:36.316Z,0.00
2019-03-17T03:37:36.377Z,0.00
2019-03-17T03:38:36.387Z,0.00
2019-03-17T03:39:36.392Z,0.00
2019-03-17T03:40:36.380Z,0.00
2019-03-17T03:41:36.390Z,0.00
2019-03-17T03:42:36.310Z,0.00
2019-03-17T03:43:36.307Z,0.00
2019-03-17T03:44:36.381Z,0.00
2019-03-17T03:45:36.385Z,0.00
2019-03-17T03:46:36.385Z,0.00
2019-03-17T03:47:36.313Z,0.00
2019-03-17T03:48:36.383Z,0.00
2019-03-17T03:49:36.386Z,0.00
2019-03-17T03:50:36.346Z,0.00
2019-03-17T03:51:36.387Z,0.00
2019-03-17T03:52:36.431Z,0.00
2019-03-17T03:53:36.386Z,0.00
2019-03-17T03:54:36.391Z,0.00
2019-03-17T03:55:36.337Z,0.00
2019-03-17T03:56:36.328Z,0.00
2019-03-17T03:57:36.412Z,0.00
2019-03-17T03:58:36.408Z,0.00
2019-03-17T03:59:36.408Z,0.00
2019-03-17T04:00:36.414Z,0.00
2019-03-17T04:01:36.372Z,0.00
2019-03-17T04:02:36.404Z,0.00
2019-03-17T04:03:36.407Z,0.00
2019-03-17T04:04:36.333Z,0.00
2019-03-17T04:05:36.327Z,0.00
2019-03-17T04:06:36.389Z,0.00
2019-03-17T04:07:36.373Z,0.00
2019-03-17T04:08:36.297Z,0.00
2019-03-17T04:09:36.343Z,0.00
2019-03-17T04:10:36.286Z,0.00
2019-03-17T04:11:36.357Z,0.00
2019-03-17T04:12:36.350Z,0.00
2019-03-17T04:13:36.288Z,0.00
2019-03-17T04:14:36.323Z,0.00
2019-03-17T04:15:36.341Z,0.00
2019-03-17T04:16:36.357Z,0.00
2019-03-17T04:17:36.427Z,0.00
2019-03-17T04:18:36.417Z,0.00
2019-03-17T04:19:36.343Z,0.00
2019-03-17T04:20:36.442Z,0.00
2019-03-17T04:21:36.348Z,0.00
2019-03-17T04:22:36.386Z,0.00
2019-03-17T04:23:36.353Z,0.00
2019-03-17T04:24:36.426Z,0.00
2019-03-17T04:25:36.411Z,0.00
2019-03-17T04:26:36.359Z,0.00
2019-03-17T04:27:36.317Z,0.00
2019-03-17T04:28:36.317Z,0.00
2019-03-17T04:29:36.366Z,0.00
2019-03-17T04:30:36.310Z,0.00
2019-03-17T04:31:36.396Z,0.00
2019-03-17T04:32:36.409Z,0.00
2019-03-17T04:33:36.412Z,0.00
2019-03-17T04:34:36.406Z,0.00
2019-03-17T04:35:36.429Z,0.00
2019-03-17T04:36:40.410Z,0.00
2019-03-17T04:37:36.392Z,0.00
2019-03-17T04:38:36.382Z,0.00
2019-03-17T04:39:36.373Z,0.00
2019-03-17T04:40:36.434Z,0.00
2019-03-17T04:41:36.362Z,0.00
2019-03-17T04:42:36.500Z,0.00
2019-03-17T04:43:36.439Z,0.00
2019-03-17T04:44:36.443Z,0.00
2019-03-17T04:45:36.423Z,0.00
2019-03-17T04:46:36.360Z,0.00
2019-03-17T04:47:36.355Z,0.00
2019-03-17T04:48:36.488Z,0.00
2019-03-17T04:49:36.459Z,0.00
2019-03-17T04:50:36.358Z,0.00
2019-03-17T04:51:36.427Z,0.00
2019-03-17T04:52:36.437Z,0.00
2019-03-17T04:53:36.428Z,0.00
2019-03-17T04:54:36.373Z,0.00
2019-03-17T04:55:36.370Z,0.00
2019-03-17T04:56:36.372Z,0.00
2019-03-17T04:57:36.369Z,0.00
2019-03-17T04:58:36.445Z,0.00
2019-03-17T04:59:36.383Z,0.00
2019-03-17T05:00:36.391Z,0.00
2019-03-17T05:01:36.379Z,0.00
2019-03-17T05:02:36.447Z,0.00
2019-03-17T05:03:36.374Z,0.00
2019-03-17T05:04:36.447Z,0.00
2019-03-17T05:05:36.392Z,0.00
2019-03-17T05:06:36.379Z,0.00
2019-03-17T05:07:36.446Z,0.00
2019-03-17T05:08:36.378Z,0.00
2019-03-17T05:09:36.381Z,0.00
2019-03-17T05:10:36.456Z,0.00
2019-03-17T05:11:36.461Z,0.00
2019-03-17T05:12:36.451Z,0.00
2019-03-17T05:13:36.450Z,0.00
2019-03-17T05:14:36.389Z,0.00
2019-03-17T05:15:36.444Z,0.00
2019-03-17T05:16:36.380Z,0.00
2019-03-17T05:17:36.446Z,0.00
2019-03-17T05:18:36.378Z,0.00
2019-03-17T05:19:36.450Z,0.00
2019-03-17T05:20:36.382Z,0.00
2019-03-17T05:21:36.447Z,0.00
2019-03-17T05:22:36.454Z,0.00
2019-03-17T05:23:36.446Z,0.00
2019-03-17T05:24:36.376Z,0.00
2019-03-17T05:25:36.464Z,0.00
2019-03-17T05:26:36.407Z,0.00
2019-03-17T05:27:36.400Z,0.00
2019-03-17T05:28:36.504Z,0.00
2019-03-17T05:29:36.462Z,0.00
2019-03-17T05:30:36.466Z,0.00
2019-03-17T05:31:36.420Z,0.00
2019-03-17T05:32:36.458Z,0.00
2019-03-17T05:33:36.466Z,0.00
2019-03-17T05:34:36.396Z,0.00
2019-03-17T05:35:36.467Z,0.00
2019-03-17T05:36:36.474Z,0.00
2019-03-17T05:37:36.479Z,0.00
2019-03-17T05:38:36.410Z,0.00
2019-03-17T05:39:36.404Z,0.00
2019-03-17T05:40:36.403Z,0.00
2019-03-17T05:41:36.413Z,0.00
2019-03-17T05:42:36.474Z,0.00
2019-03-17T05:43:36.426Z,0.00
2019-03-17T05:44:36.413Z,0.00
2019-03-17T05:45:36.408Z,0.00
2019-03-17T05:46:36.411Z,0.00
2019-03-17T05:47:36.408Z,0.00
2019-03-17T05:48:36.422Z,0.00
2019-03-17T05:49:36.487Z,0.00
2019-03-17T05:50:36.486Z,0.00
2019-03-17T05:51:36.412Z,0.00
2019-03-17T05:52:36.413Z,0.00
2019-03-17T05:53:36.477Z,0.00
2019-03-17T05:54:36.430Z,0.00
2019-03-17T05:55:36.471Z,0.00
2019-03-17T05:56:36.355Z,1.00
2019-03-17T05:57:36.380Z,1.00
2019-03-17T05:58:36.445Z,1.00
2019-03-17T05:59:36.407Z,1.00
2019-03-17T06:00:36.413Z,1.00
2019-03-17T06:01:36.404Z,2.00
2019-03-17T06:02:36.473Z,2.00
2019-03-17T06:03:36.392Z,2.00
2019-03-17T06:04:36.480Z,2.00
2019-03-17T06:05:36.460Z,2.00
2019-03-17T06:06:36.436Z,2.00
2019-03-17T06:07:36.440Z,3.00
2019-03-17T06:08:36.438Z,3.00
2019-03-17T06:09:36.418Z,3.00
2019-03-17T06:10:36.373Z,3.00
2019-03-17T06:11:36.396Z,3.00
2019-03-17T06:12:36.447Z,4.00
2019-03-17T06:13:36.469Z,4.00
2019-03-17T06:14:36.381Z,4.00
2019-03-17T06:15:36.421Z,4.00
2019-03-17T06:16:36.424Z,4.00
2019-03-17T06:17:36.354Z,5.00
2019-03-17T06:18:36.346Z,6.00
2019-03-17T06:19:36.401Z,7.00
2019-03-17T06:20:36.352Z,8.00
2019-03-17T06:21:36.465Z,8.00
2019-03-17T06:22:36.352Z,6.00
2019-03-17T06:23:36.449Z,5.00
2019-03-17T06:24:36.395Z,5.00
2019-03-17T06:25:36.501Z,4.00
2019-03-17T06:26:36.452Z,4.00
2019-03-17T06:27:36.509Z,3.00
2019-03-17T06:28:36.501Z,3.00
2019-03-17T06:29:36.443Z,4.00
2019-03-17T06:30:36.571Z,4.00
2019-03-17T06:31:36.433Z,5.00
2019-03-17T06:32:36.512Z,5.00
2019-03-17T06:33:36.438Z,5.00
2019-03-17T06:34:36.442Z,6.00
2019-03-17T06:35:36.518Z,6.00
2019-03-17T06:36:36.438Z,7.00
2019-03-17T06:37:36.514Z,7.00
2019-03-17T06:38:36.445Z,6.00
2019-03-17T06:39:36.440Z,5.00
2019-03-17T06:40:36.512Z,5.00
2019-03-17T06:41:36.450Z,5.00
2019-03-17T06:42:36.514Z,6.00
2019-03-17T06:43:36.447Z,5.00
2019-03-17T06:44:36.514Z,5.00
2019-03-17T06:45:36.448Z,4.00
2019-03-17T06:46:36.516Z,4.00
2019-03-17T06:47:36.452Z,4.00
2019-03-17T06:48:36.528Z,4.00
2019-03-17T06:49:36.526Z,5.00
2019-03-17T06:50:36.515Z,6.00
2019-03-17T06:51:36.514Z,7.00
2019-03-17T06:52:36.518Z,7.00
2019-03-17T06:53:36.523Z,7.00
2019-03-17T06:54:36.535Z,8.00
2019-03-17T06:55:36.438Z,8.00
2019-03-17T06:56:36.515Z,8.00
2019-03-17T06:57:36.513Z,7.00
2019-03-17T06:58:36.441Z,7.00
2019-03-17T06:59:36.520Z,7.00
2019-03-17T07:00:36.441Z,7.00
2019-03-17T07:01:36.470Z,8.00
2019-03-17T07:02:36.517Z,8.00
2019-03-17T07:03:36.486Z,8.00
2019-03-17T07:04:36.524Z,9.00
2019-03-17T07:05:36.541Z,10.00
2019-03-17T07:06:36.528Z,10.00
2019-03-17T07:07:44.086Z,8.00
2019-03-17T07:08:36.533Z,7.00
2019-03-17T07:09:36.466Z,6.00
2019-03-17T07:10:36.463Z,6.00
2019-03-17T07:11:36.530Z,6.00
2019-03-17T07:12:36.464Z,6.00
2019-03-17T07:13:36.530Z,5.00
2019-03-17T07:14:36.473Z,6.00
2019-03-17T07:15:36.538Z,6.00
2019-03-17T07:16:36.577Z,6.00
2019-03-17T07:17:36.538Z,6.00
2019-03-17T07:18:36.472Z,6.00
2019-03-17T07:19:36.547Z,5.00
2019-03-17T07:20:36.548Z,5.00
2019-03-17T07:21:36.475Z,4.00
2019-03-17T07:22:36.476Z,5.00
2019-03-17T07:23:36.543Z,5.00
2019-03-17T07:24:36.475Z,4.00
2019-03-17T07:25:36.449Z,5.00
2019-03-17T07:26:36.461Z,6.00
2019-03-17T07:27:36.496Z,6.00
2019-03-17T07:28:36.548Z,6.00
2019-03-17T07:29:36.478Z,5.00
2019-03-17T07:30:36.472Z,5.00
2019-03-17T07:31:36.441Z,6.00
2019-03-17T07:32:36.397Z,6.00
2019-03-17T07:33:36.467Z,5.00
2019-03-17T07:34:36.470Z,6.00
2019-03-17T07:35:36.502Z,8.00
2019-03-17T07:36:36.547Z,8.00
2019-03-17T07:37:36.555Z,7.00
2019-03-17T07:38:36.550Z,7.00
2019-03-17T07:39:36.490Z,7.00
2019-03-17T07:40:36.488Z,6.00
2019-03-17T07:41:36.554Z,7.00
2019-03-17T07:42:36.504Z,7.00
2019-03-17T07:43:36.494Z,8.00
2019-03-17T07:44:36.556Z,7.00
2019-03-17T07:45:36.554Z,6.00
2019-03-17T07:46:36.507Z,6.00
2019-03-17T07:47:36.555Z,6.00
2019-03-17T07:48:36.493Z,6.00
2019-03-17T07:49:36.559Z,7.00
2019-03-17T07:50:36.567Z,8.00
2019-03-17T07:51:36.561Z,8.00
2019-03-17T07:52:36.560Z,9.00
2019-03-17T07:53:36.563Z,10.00
2019-03-17T07:54:36.495Z,9.00
2019-03-17T07:55:36.555Z,8.00
2019-03-17T07:56:36.575Z,9.00
2019-03-17T07:57:36.524Z,9.00
2019-03-17T07:58:36.482Z,9.00
2019-03-17T07:59:36.537Z,10.00
2019-03-17T08:00:36.488Z,11.00
2019-03-17T08:01:36.450Z,12.00
2019-03-17T08:02:36.511Z,13.00
2019-03-17T08:03:36.598Z,14.00
2019-03-17T08:04:42.389Z,14.00
2019-03-17T08:05:36.451Z,13.00
2019-03-17T08:06:36.491Z,12.00
2019-03-17T08:07:36.436Z,11.00
2019-03-17T08:08:36.517Z,10.00
2019-03-17T08:09:36.497Z,10.00
2019-03-17T08:10:36.533Z,10.00
2019-03-17T08:11:36.435Z,10.00
2019-03-17T08:12:36.433Z,11.00
2019-03-17T08:13:36.528Z,11.00
2019-03-17T08:14:36.526Z,9.00
2019-03-17T08:15:36.500Z,9.00
2019-03-17T08:16:36.509Z,11.00
2019-03-17T08:17:36.516Z,12.00
2019-03-17T08:18:36.591Z,12.00
2019-03-17T08:19:36.601Z,12.00
2019-03-17T08:20:36.619Z,8.00
2019-03-17T08:21:36.587Z,8.00
2019-03-17T08:22:36.605Z,9.00
2019-03-17T08:23:36.519Z,9.00
2019-03-17T08:24:36.573Z,10.00
2019-03-17T08:25:36.595Z,9.00
2019-03-17T08:26:36.477Z,9.00
2019-03-17T08:27:36.569Z,8.00
2019-03-17T08:28:36.594Z,10.00
2019-03-17T08:29:36.489Z,10.00
2019-03-17T08:30:36.608Z,11.00
2019-03-17T08:31:36.527Z,10.00
2019-03-17T08:32:36.529Z,7.00
2019-03-17T08:33:36.497Z,7.00
2019-03-17T08:34:36.571Z,8.00
2019-03-17T08:35:36.585Z,8.00
2019-03-17T08:36:36.537Z,7.00
2019-03-17T08:37:36.510Z,7.00
2019-03-17T08:38:36.550Z,6.00
2019-03-17T08:39:36.576Z,6.00
2019-03-17T08:40:36.587Z,7.00
2019-03-17T08:41:37.726Z,7.00
2019-03-17T08:42:36.538Z,7.00
2019-03-17T08:43:36.542Z,6.00
2019-03-17T08:44:36.586Z,5.00
2019-03-17T08:45:36.527Z,5.00
2019-03-17T08:46:36.529Z,6.00
2019-03-17T08:47:36.542Z,6.00
2019-03-17T08:48:36.533Z,6.00
2019-03-17T08:49:36.598Z,7.00
2019-03-17T08:50:36.611Z,9.00
2019-03-17T08:51:36.778Z,10.00
2019-03-17T08:52:36.539Z,8.00
2019-03-17T08:53:36.602Z,10.00
2019-03-17T08:54:36.598Z,11.00
2019-03-17T08:55:36.615Z,11.00
2019-03-17T08:56:36.539Z,10.00
2019-03-17T08:57:36.461Z,12.00
2019-03-17T08:58:36.415Z,13.00
2019-03-17T08:59:36.416Z,14.00
2019-03-17T09:00:36.517Z,13.00
2019-03-17T09:01:36.509Z,11.00
2019-03-17T09:02:36.530Z,12.00
2019-03-17T09:03:36.464Z,12.00
2019-03-17T09:04:36.530Z,10.00
2019-03-17T09:05:36.533Z,10.00
2019-03-17T09:06:36.560Z,9.00
2019-03-17T09:07:36.547Z,9.00
2019-03-17T09:08:36.612Z,11.00
2019-03-17T09:09:36.619Z,10.00
2019-03-17T09:10:36.554Z,9.00
2019-03-17T09:11:36.504Z,8.00
2019-03-17T09:12:36.628Z,9.00
2019-03-17T09:13:36.714Z,8.00
2019-03-17T09:14:36.553Z,7.00
2019-03-17T09:15:36.554Z,8.00
2019-03-17T09:16:36.611Z,8.00
2019-03-17T09:17:36.524Z,9.00
2019-03-17T09:18:36.611Z,9.00
2019-03-17T09:19:36.518Z,8.00
2019-03-17T09:20:36.609Z,7.00
2019-03-17T09:21:36.607Z,7.00
2019-03-17T09:22:36.606Z,8.00
2019-03-17T09:23:36.616Z,9.00
2019-03-17T09:24:36.590Z,9.00
2019-03-17T09:25:36.610Z,11.00
2019-03-17T09:26:36.618Z,10.00
2019-03-17T09:27:36.625Z,10.00
2019-03-17T09:28:36.563Z,12.00
2019-03-17T09:29:36.630Z,13.00
2019-03-17T09:30:36.574Z,12.00
2019-03-17T09:31:36.536Z,11.00
2019-03-17T09:32:36.638Z,9.00
2019-03-17T09:33:36.550Z,10.00
2019-03-17T09:34:36.559Z,12.00
2019-03-17T09:35:36.614Z,11.00
2019-03-17T09:36:36.574Z,12.00
2019-03-17T09:37:36.513Z,12.00
2019-03-17T09:38:46.855Z,12.00
2019-03-17T09:39:36.515Z,12.00
2019-03-17T09:40:36.562Z,12.00
2019-03-17T09:41:36.456Z,12.00
2019-03-17T09:42:36.561Z,12.00
2019-03-17T09:43:36.562Z,13.00
2019-03-17T09:44:36.572Z,12.00
2019-03-17T09:45:36.543Z,11.00
2019-03-17T09:46:36.581Z,9.00
2019-03-17T09:47:36.648Z,9.00
2019-03-17T09:48:36.641Z,9.00
2019-03-17T09:49:36.700Z,10.00
2019-03-17T09:50:36.730Z,10.00
2019-03-17T09:51:36.577Z,8.00
2019-03-17T09:52:36.646Z,7.00
2019-03-17T09:53:36.585Z,5.00
2019-03-17T09:54:36.649Z,5.00
2019-03-17T09:55:36.654Z,6.00
2019-03-17T09:56:36.617Z,8.00
2019-03-17T09:57:36.585Z,10.00
2019-03-17T09:58:36.649Z,13.00
2019-03-17T09:59:36.648Z,14.00
2019-03-17T10:00:36.664Z,16.00
2019-03-17T10:01:36.660Z,17.00
2019-03-17T10:02:36.588Z,19.00
2019-03-17T10:03:36.656Z,20.00
2019-03-17T10:04:36.654Z,20.00
2019-03-17T10:05:36.589Z,20.00
2019-03-17T10:06:36.666Z,20.00
2019-03-17T10:07:36.588Z,20.00
2019-03-17T10:08:36.594Z,21.00
2019-03-17T10:09:36.675Z,22.00
2019-03-17T10:10:36.655Z,21.00
2019-03-17T10:11:36.668Z,21.00
2019-03-17T10:12:36.670Z,20.00
2019-03-17T10:13:36.674Z,20.00
2019-03-17T10:14:36.600Z,20.00
2019-03-17T10:15:36.666Z,20.00
2019-03-17T10:16:36.581Z,20.00
2019-03-17T10:17:36.634Z,21.00
2019-03-17T10:18:36.571Z,21.00
2019-03-17T10:19:36.536Z,20.00
2019-03-17T10:20:36.657Z,19.00
2019-03-17T10:21:36.575Z,19.00
2019-03-17T10:22:36.552Z,19.00
2019-03-17T10:23:36.541Z,18.00
2019-03-17T10:24:36.587Z,18.00
2019-03-17T10:25:36.659Z,16.00
2019-03-17T10:26:36.609Z,17.00
2019-03-17T10:27:36.678Z,18.00
2019-03-17T10:28:36.685Z,20.00
2019-03-17T10:29:36.675Z,20.00
2019-03-17T10:30:36.672Z,20.00
2019-03-17T10:31:36.673Z,21.00
2019-03-17T10:32:36.614Z,21.00
2019-03-17T10:33:36.686Z,20.00
2019-03-17T10:34:36.675Z,20.00
2019-03-17T10:35:36.617Z,20.00
2019-03-17T10:36:36.672Z,19.00
2019-03-17T10:37:36.614Z,18.00
2019-03-17T10:38:36.624Z,17.00
2019-03-17T10:39:36.686Z,17.00
2019-03-17T10:40:36.613Z,17.00
2019-03-17T10:41:36.583Z,17.00
2019-03-17T10:42:36.683Z,20.00
2019-03-17T10:43:36.685Z,21.00
2019-03-17T10:44:36.693Z,23.00
2019-03-17T10:45:36.617Z,24.00
2019-03-17T10:46:36.631Z,24.00
2019-03-17T10:47:36.676Z,26.00
2019-03-17T10:48:36.588Z,28.00
2019-03-17T10:49:36.688Z,30.00
2019-03-17T10:50:48.689Z,31.00
2019-03-17T10:51:36.615Z,32.00
2019-03-17T10:52:36.677Z,34.00
2019-03-17T10:53:36.599Z,36.00
2019-03-17T10:54:36.686Z,36.00
2019-03-17T10:55:36.699Z,35.00
2019-03-17T10:56:36.627Z,35.00
2019-03-17T10:57:36.633Z,34.00
2019-03-17T10:58:36.695Z,31.00
2019-03-17T10:59:36.630Z,30.00
2019-03-17T11:00:36.597Z,29.00
2019-03-17T11:01:36.697Z,30.00
2019-03-17T11:02:36.699Z,30.00
2019-03-17T11:03:36.638Z,29.00
2019-03-17T11:04:36.638Z,28.00
2019-03-17T11:05:36.693Z,28.00
2019-03-17T11:06:36.690Z,29.00
2019-03-17T11:07:36.681Z,30.00
2019-03-17T11:08:36.631Z,30.00
2019-03-17T11:09:36.660Z,31.00
2019-03-17T11:10:36.627Z,30.00
2019-03-17T11:11:36.581Z,27.00
2019-03-17T11:12:36.688Z,25.00
2019-03-17T11:13:36.576Z,25.00
2019-03-17T11:14:36.595Z,24.00
2019-03-17T11:15:36.685Z,24.00
2019-03-17T11:16:36.711Z,24.00
2019-03-17T11:17:36.717Z,25.00
2019-03-17T11:18:36.711Z,24.00
2019-03-17T11:19:36.712Z,24.00
2019-03-17T11:20:36.715Z,23.00
2019-03-17T11:21:36.639Z,23.00
2019-03-17T11:22:36.737Z,22.00
2019-03-17T11:23:36.647Z,22.00
2019-03-17T11:24:36.711Z,23.00
2019-03-17T11:25:36.719Z,23.00
2019-03-17T11:26:36.631Z,24.00
2019-03-17T11:27:36.632Z,23.00
2019-03-17T11:28:36.707Z,22.00
2019-03-17T11:29:36.593Z,21.00
2019-03-17T11:30:36.622Z,22.00
2019-03-17T11:31:36.710Z,22.00
2019-03-17T11:32:36.636Z,24.00
2019-03-17T11:33:36.675Z,29.00
2019-03-17T11:34:36.667Z,33.00
2019-03-17T11:35:36.663Z,33.00
2019-03-17T11:36:36.669Z,35.00
2019-03-17T11:37:36.656Z,34.00
2019-03-17T11:38:36.647Z,34.00
2019-03-17T11:39:37.986Z,31.00
2019-03-17T11:40:36.629Z,29.00
2019-03-17T11:41:36.627Z,28.00
2019-03-17T11:42:36.618Z,29.00
2019-03-17T11:43:36.657Z,29.00
2019-03-17T11:44:36.595Z,30.00
2019-03-17T11:45:36.645Z,32.00
2019-03-17T11:46:36.663Z,34.00
2019-03-17T11:47:36.731Z,34.00
2019-03-17T11:48:36.658Z,31.00
2019-03-17T11:49:36.730Z,30.00
2019-03-17T11:50:36.677Z,29.00
2019-03-17T11:51:36.661Z,29.00
2019-03-17T11:52:36.823Z,28.00
2019-03-17T11:53:36.633Z,26.00
2019-03-17T11:54:36.733Z,23.00
2019-03-17T11:55:36.684Z,21.00
2019-03-17T11:56:36.732Z,19.00
2019-03-17T11:57:36.593Z,17.00
2019-03-17T11:58:36.701Z,16.00
2019-03-17T11:59:36.701Z,15.00
2019-03-17T12:00:36.697Z,17.00
2019-03-17T12:01:36.686Z,21.00
2019-03-17T12:02:36.632Z,23.00
2019-03-17T12:03:36.639Z,20.00
2019-03-17T12:04:36.611Z,16.00
2019-03-17T12:05:36.682Z,15.00
2019-03-17T12:06:36.669Z,16.00
2019-03-17T12:07:36.749Z,20.00
2019-03-17T12:08:36.760Z,24.00
2019-03-17T12:09:49.373Z,25.00
2019-03-17T12:10:36.678Z,26.00
2019-03-17T12:11:36.744Z,27.00
2019-03-17T12:12:36.752Z,26.00
2019-03-17T12:13:36.746Z,24.00
2019-03-17T12:14:36.745Z,24.00
2019-03-17T12:15:36.751Z,26.00
2019-03-17T12:16:36.701Z,29.00
2019-03-17T12:17:36.654Z,29.00
2019-03-17T12:18:36.740Z,26.00
2019-03-17T12:19:36.648Z,23.00
2019-03-17T12:20:36.634Z,20.00
2019-03-17T12:21:36.739Z,17.00
2019-03-17T12:22:36.690Z,12.00
2019-03-17T12:23:36.745Z,10.00
2019-03-17T12:24:36.622Z,10.00
2019-03-17T12:25:36.716Z,11.00
2019-03-17T12:26:36.751Z,12.00
2019-03-17T12:27:36.693Z,11.00
2019-03-17T12:28:36.759Z,10.00
2019-03-17T12:29:36.760Z,8.00
2019-03-17T12:30:36.690Z,6.00
2019-03-17T12:31:36.763Z,6.00
2019-03-17T12:32:36.770Z,6.00
2019-03-17T12:33:36.762Z,6.00
2019-03-17T12:34:36.695Z,6.00
2019-03-17T12:35:36.763Z,5.00
2019-03-17T12:36:36.698Z,6.00
2019-03-17T12:37:36.696Z,6.00
2019-03-17T12:38:36.777Z,6.00
2019-03-17T12:39:36.701Z,8.00
2019-03-17T12:40:36.767Z,10.00
2019-03-17T12:41:38.329Z,11.00
2019-03-17T12:42:36.766Z,13.00
2019-03-17T12:43:36.766Z,15.00
2019-03-17T12:44:36.765Z,15.00
2019-03-17T12:45:36.701Z,16.00
2019-03-17T12:46:36.768Z,16.00
2019-03-17T12:47:37.531Z,17.00
2019-03-17T12:48:36.717Z,18.00
2019-03-17T12:49:36.710Z,18.00
2019-03-17T12:50:36.785Z,19.00
2019-03-17T12:51:36.705Z,19.00
2019-03-17T12:52:36.707Z,18.00
2019-03-17T12:53:36.780Z,17.00
2019-03-17T12:54:36.795Z,16.00
2019-03-17T12:55:36.707Z,15.00
2019-03-17T12:56:36.710Z,14.00
2019-03-17T12:57:36.718Z,14.00
2019-03-17T12:58:36.759Z,14.00
2019-03-17T12:59:36.743Z,13.00
2019-03-17T13:00:36.711Z,12.00
2019-03-17T13:01:36.711Z,12.00
2019-03-17T13:02:36.784Z,13.00
2019-03-17T13:03:36.680Z,13.00
2019-03-17T13:04:36.851Z,13.00
2019-03-17T13:05:36.791Z,12.00
2019-03-17T13:07:36.750Z,7.00
2019-03-17T13:08:36.788Z,6.00
2019-03-17T13:09:36.789Z,7.00
2019-03-17T13:10:36.719Z,9.00
2019-03-17T13:11:36.748Z,11.00